createdAt,value
2024-05-09T00:01:18.020Z,10.74
2024-05-09T00:03:48.328Z,10.70
2024-05-09T00:06:18.428Z,10.70
2024-05-09T00:08:48.455Z,10.69
2024-05-09T00:11:21.410Z,10.67
2024-05-09T00:13:51.479Z,10.61
2024-05-09T00:16:21.491Z,10.57
2024-05-09T00:18:51.580Z,10.53
2024-05-09T00:21:21.667Z,10.51
2024-05-09T00:23:51.671Z,10.45
2024-05-09T00:26:24.423Z,10.42
2024-05-09T00:28:54.461Z,10.35
2024-05-09T00:31:24.514Z,10.30
2024-05-09T00:33:54.836Z,10.21
2024-05-09T00:36:24.904Z,10.16
2024-05-09T00:38:54.924Z,10.15
2024-05-09T00:41:27.664Z,10.15
2024-05-09T00:43:58.036Z,10.07
2024-05-09T00:46:28.820Z,9.99
2024-05-09T00:48:58.942Z,9.89
2024-05-09T00:51:29.203Z,9.81
2024-05-09T00:53:59.232Z,9.69
2024-05-09T00:56:32.030Z,9.59
2024-05-09T00:59:02.098Z,9.49
2024-05-09T01:01:32.530Z,9.39
2024-05-09T01:04:02.933Z,9.28
2024-05-09T01:06:33.031Z,9.17
2024-05-09T01:09:03.171Z,9.13
2024-05-09T01:11:39.898Z,9.07
2024-05-09T01:14:10.121Z,8.98
2024-05-09T01:16:40.440Z,8.89
2024-05-09T01:19:17.705Z,8.81
2024-05-09T01:21:47.838Z,8.82
2024-05-09T01:24:20.444Z,8.84
2024-05-09T01:26:50.423Z,8.78
2024-05-09T01:29:20.816Z,8.74
2024-05-09T01:31:52.501Z,8.64
2024-05-09T01:34:22.800Z,8.60
2024-05-09T01:36:52.800Z,8.56
2024-05-09T01:39:25.712Z,8.50
2024-05-09T01:41:55.705Z,8.39
2024-05-09T01:44:25.756Z,8.38
2024-05-09T01:46:55.885Z,8.42
2024-05-09T01:49:26.177Z,8.43
2024-05-09T01:51:56.268Z,8.42
2024-05-09T01:54:28.975Z,8.40
2024-05-09T01:56:58.946Z,8.34
2024-05-09T01:59:29.031Z,8.30
2024-05-09T02:01:59.449Z,8.25
2024-05-09T02:04:30.835Z,8.13
2024-05-09T02:07:01.005Z,8.05
2024-05-09T02:09:33.756Z,8.01
2024-05-09T02:12:03.856Z,7.98
2024-05-09T02:14:34.067Z,7.92
2024-05-09T02:17:04.147Z,7.87
2024-05-09T02:19:34.431Z,7.81
2024-05-09T02:22:04.436Z,7.78
2024-05-09T02:24:37.167Z,7.76
2024-05-09T02:27:07.421Z,7.73
2024-05-09T02:29:38.986Z,7.70
2024-05-09T02:32:09.241Z,7.66
2024-05-09T02:34:39.411Z,7.52
2024-05-09T02:37:09.422Z,7.42
2024-05-09T02:39:39.406Z,7.40
2024-05-09T02:42:09.501Z,7.37
2024-05-09T02:44:36.964Z,7.33
2024-05-09T02:47:07.376Z,7.27
2024-05-09T02:49:34.935Z,7.17
2024-05-09T02:52:04.968Z,7.10
2024-05-09T02:54:32.327Z,7.09
2024-05-09T02:57:04.942Z,7.04
2024-05-09T02:59:32.358Z,6.99
2024-05-09T03:02:02.364Z,6.94
2024-05-09T03:04:29.873Z,6.88
2024-05-09T03:06:59.883Z,6.94
2024-05-09T03:09:27.260Z,6.95
2024-05-09T03:11:57.286Z,6.94
2024-05-09T03:14:27.467Z,6.92
2024-05-09T03:16:57.627Z,6.90
2024-05-09T03:19:25.109Z,6.79
2024-05-09T03:21:55.142Z,6.68
2024-05-09T03:24:22.437Z,6.51
2024-05-09T03:26:53.590Z,6.40
2024-05-09T03:29:21.045Z,6.37
2024-05-09T03:31:53.756Z,6.35
2024-05-09T03:34:21.164Z,6.35
2024-05-09T03:36:51.289Z,6.44
2024-05-09T03:39:21.300Z,6.53
2024-05-09T03:41:51.364Z,6.54
2024-05-09T03:44:21.416Z,6.48
2024-05-09T03:46:54.379Z,6.52
2024-05-09T03:49:22.666Z,6.43
2024-05-09T03:51:52.774Z,6.38
2024-05-09T03:54:20.148Z,6.48
2024-05-09T03:56:50.061Z,6.58
2024-05-09T03:59:17.409Z,6.63
2024-05-09T04:01:47.681Z,6.70
2024-05-09T04:04:17.850Z,6.75
2024-05-09T04:06:48.076Z,6.79
2024-05-09T04:09:15.463Z,6.83
2024-05-09T04:11:45.543Z,6.83
2024-05-09T04:14:12.956Z,6.81
2024-05-09T04:16:42.917Z,6.78
2024-05-09T04:19:10.434Z,6.74
2024-05-09T04:21:43.163Z,6.74
2024-05-09T04:24:10.542Z,6.71
2024-05-09T04:26:40.479Z,6.67
2024-05-09T04:29:07.913Z,6.65
2024-05-09T04:31:38.880Z,6.60
2024-05-09T04:34:06.541Z,6.54
2024-05-09T04:36:36.655Z,6.50
2024-05-09T04:39:06.861Z,6.53
2024-05-09T04:41:36.934Z,6.56
2024-05-09T04:44:04.406Z,6.55
2024-05-09T04:46:34.330Z,6.51
2024-05-09T04:49:01.986Z,6.46
2024-05-09T04:51:31.980Z,6.35
2024-05-09T04:53:59.330Z,6.25
2024-05-09T04:56:32.072Z,6.19
2024-05-09T04:58:59.490Z,6.15
2024-05-09T05:01:29.481Z,6.13
2024-05-09T05:03:57.261Z,6.05
2024-05-09T05:06:27.373Z,5.99
2024-05-09T05:08:54.777Z,6.00
2024-05-09T05:11:24.844Z,6.00
2024-05-09T05:13:55.027Z,6.02
2024-05-09T05:16:25.101Z,6.05
2024-05-09T05:18:52.500Z,6.11
2024-05-09T05:21:23.923Z,6.19
2024-05-09T05:23:51.371Z,6.21
2024-05-09T05:26:21.380Z,6.23
2024-05-09T05:28:48.835Z,6.27
2024-05-09T05:31:21.615Z,6.29
2024-05-09T05:33:49.474Z,6.34
2024-05-09T05:36:19.503Z,6.33
2024-05-09T05:38:48.208Z,6.35
2024-05-09T05:41:18.307Z,6.44
2024-05-09T05:43:45.867Z,6.53
2024-05-09T05:46:15.898Z,6.61
2024-05-09T05:48:45.944Z,6.60
2024-05-09T05:51:16.330Z,6.65
2024-05-09T05:53:44.857Z,6.68
2024-05-09T05:56:14.969Z,6.75
2024-05-09T05:58:43.440Z,6.83
2024-05-09T06:01:13.476Z,6.90
2024-05-09T06:03:41.145Z,6.98
2024-05-09T06:06:13.836Z,7.06
2024-05-09T06:08:41.276Z,7.16
2024-05-09T06:11:11.333Z,7.30
2024-05-09T06:13:42.611Z,7.43
2024-05-09T06:16:12.674Z,7.60
2024-05-09T06:18:40.291Z,7.79
2024-05-09T06:21:10.551Z,7.96
2024-05-09T06:23:47.718Z,8.10
2024-05-09T06:26:17.815Z,8.22
2024-05-09T06:28:45.238Z,8.34
2024-05-09T06:31:15.308Z,8.60
2024-05-09T06:33:42.746Z,8.74
2024-05-09T06:36:12.789Z,9.02
2024-05-09T06:38:40.260Z,9.33
2024-05-09T06:41:12.997Z,9.50
2024-05-09T06:43:40.520Z,9.62
2024-05-09T06:46:12.391Z,9.77
2024-05-09T06:48:40.026Z,9.92
2024-05-09T06:51:10.291Z,9.98
2024-05-09T06:53:39.984Z,9.98
2024-05-09T06:56:13.557Z,10.02
2024-05-09T06:58:40.937Z,10.03
2024-05-09T07:01:10.972Z,10.10
2024-05-09T07:03:38.482Z,10.24
2024-05-09T07:06:08.708Z,10.36
2024-05-09T07:08:36.257Z,10.47
2024-05-09T07:11:06.388Z,10.53
2024-05-09T07:13:36.509Z,10.61
2024-05-09T07:16:06.714Z,10.82
2024-05-09T07:18:34.332Z,11.01
2024-05-09T07:21:04.471Z,11.23
2024-05-09T07:23:32.096Z,11.32
2024-05-09T07:26:02.138Z,11.27
2024-05-09T07:28:29.533Z,11.29
2024-05-09T07:31:02.322Z,11.37
2024-05-09T07:33:30.048Z,11.39
2024-05-09T07:36:00.423Z,11.41
2024-05-09T07:38:27.900Z,11.50
2024-05-09T07:40:58.057Z,11.58
2024-05-09T07:43:25.518Z,11.67
2024-05-09T07:45:58.222Z,11.72
2024-05-09T07:50:01.401Z,11.71
2024-05-09T07:53:53.518Z,11.87
2024-05-09T07:56:26.623Z,12.11
2024-05-09T07:58:54.507Z,12.33
2024-05-09T08:01:26.234Z,12.40
2024-05-09T08:03:56.970Z,12.42
2024-05-09T08:06:27.640Z,12.51
2024-05-09T08:08:55.329Z,12.55
2024-05-09T08:11:26.161Z,12.61
2024-05-09T08:13:53.561Z,12.72
2024-05-09T08:16:23.930Z,12.79
2024-05-09T08:18:51.583Z,12.87
2024-05-09T08:21:28.963Z,12.97
2024-05-09T08:23:57.979Z,13.01
2024-05-09T08:26:28.096Z,13.03
2024-05-09T08:28:55.569Z,13.04
2024-05-09T08:31:25.737Z,12.98
2024-05-09T08:33:54.746Z,13.08
2024-05-09T08:36:27.575Z,13.18
2024-05-09T08:38:55.960Z,13.26
2024-05-09T08:41:25.960Z,13.35
2024-05-09T08:43:53.381Z,13.42
2024-05-09T08:46:23.522Z,13.54
2024-05-09T08:48:53.145Z,13.69
2024-05-09T08:51:23.332Z,13.85
2024-05-09T08:53:53.942Z,13.90
2024-05-09T08:56:24.576Z,13.88
2024-05-09T08:58:56.646Z,13.93
2024-05-09T09:01:26.962Z,13.97
2024-05-09T09:03:54.737Z,13.93
2024-05-09T09:06:24.944Z,13.95
2024-05-09T09:08:55.072Z,14.00
2024-05-09T09:11:25.277Z,14.07
2024-05-09T09:13:52.742Z,14.16
2024-05-09T09:16:23.076Z,14.30
2024-05-09T09:18:53.534Z,14.55
2024-05-09T09:21:25.090Z,14.84
2024-05-09T09:23:55.897Z,15.02
2024-05-09T09:26:26.580Z,15.25
2024-05-09T09:28:54.068Z,15.67
2024-05-09T09:31:24.441Z,15.87
2024-05-09T09:33:52.660Z,15.86
2024-05-09T09:36:22.915Z,15.90
2024-05-09T09:38:52.109Z,16.03
2024-05-09T09:41:27.343Z,16.23
2024-05-09T09:43:55.874Z,16.45
2024-05-09T09:46:26.663Z,16.81
2024-05-09T09:48:54.472Z,17.17
2024-05-09T09:51:24.634Z,17.46
2024-05-09T09:53:52.975Z,17.68
2024-05-09T09:56:26.224Z,17.80
2024-05-09T09:58:54.220Z,18.19
2024-05-09T10:01:24.333Z,18.47
2024-05-09T10:03:53.455Z,18.70
2024-05-09T10:06:24.749Z,19.36
2024-05-09T10:08:52.364Z,19.80
2024-05-09T10:11:25.674Z,20.04
2024-05-09T10:13:55.136Z,20.30
2024-05-09T10:16:25.374Z,20.68
2024-05-09T10:18:53.113Z,20.80
2024-05-09T10:21:23.592Z,20.59
2024-05-09T10:23:57.475Z,20.66
2024-05-09T10:26:36.018Z,21.00
2024-05-09T10:29:11.263Z,21.16
2024-05-09T10:31:44.079Z,21.02
2024-05-09T10:34:17.503Z,20.45
2024-05-09T10:36:47.764Z,19.95
2024-05-09T10:39:15.752Z,19.89
2024-05-09T10:41:48.456Z,20.27
2024-05-09T10:44:16.541Z,20.47
2024-05-09T10:46:47.259Z,20.49
2024-05-09T10:49:15.176Z,20.74
2024-05-09T10:51:45.502Z,20.94
2024-05-09T10:54:13.037Z,21.38
2024-05-09T10:56:43.053Z,21.57
2024-05-09T10:59:13.419Z,21.56
2024-05-09T11:01:43.811Z,21.60
2024-05-09T11:04:11.411Z,21.87
2024-05-09T11:06:41.760Z,21.97
2024-05-09T11:09:09.862Z,22.19
2024-05-09T11:11:39.913Z,22.21
2024-05-09T11:14:14.829Z,22.33
2024-05-09T11:16:44.958Z,22.24
2024-05-09T11:19:12.960Z,22.16
2024-05-09T11:21:43.138Z,22.18
2024-05-09T11:24:11.471Z,22.35
2024-05-09T11:26:41.883Z,22.46
2024-05-09T11:29:09.342Z,22.45
2024-05-09T11:31:50.583Z,22.33
2024-05-09T11:34:18.102Z,22.42
2024-05-09T11:36:48.209Z,22.36
2024-05-09T11:39:15.936Z,22.44
2024-05-09T11:41:46.085Z,22.35
2024-05-09T11:44:13.630Z,22.15
2024-05-09T11:46:43.748Z,21.73
2024-05-09T11:49:13.956Z,21.82
2024-05-09T11:51:44.149Z,22.37
2024-05-09T11:54:11.641Z,22.48
2024-05-09T11:56:41.720Z,22.40
2024-05-09T11:59:09.614Z,22.61
2024-05-09T12:01:39.709Z,22.71
2024-05-09T12:04:07.477Z,22.50
2024-05-09T12:06:40.314Z,22.41
2024-05-09T12:09:07.831Z,22.63
2024-05-09T12:11:37.959Z,23.22
2024-05-09T12:14:05.454Z,23.36
2024-05-09T12:16:35.596Z,23.49
2024-05-09T12:19:03.341Z,23.30
2024-05-09T12:21:33.847Z,22.93
2024-05-09T12:24:04.207Z,22.32
2024-05-09T12:26:34.312Z,22.49
2024-05-09T12:29:01.812Z,22.61
2024-05-09T12:31:31.902Z,22.29
2024-05-09T12:34:00.499Z,22.10
2024-05-09T12:36:30.717Z,22.26
2024-05-09T12:38:58.200Z,22.47
2024-05-09T12:41:30.964Z,22.73
2024-05-09T12:43:58.555Z,23.37
2024-05-09T12:46:28.804Z,23.46
2024-05-09T12:48:56.485Z,23.62
2024-05-09T12:51:26.673Z,23.59
2024-05-09T12:53:54.081Z,22.88
2024-05-09T12:56:24.067Z,22.42
2024-05-09T12:58:54.167Z,22.32
2024-05-09T13:01:24.291Z,22.10
2024-05-09T13:03:52.089Z,22.38
2024-05-09T13:06:22.311Z,22.41
2024-05-09T13:08:49.797Z,22.32
2024-05-09T13:11:20.016Z,22.29
2024-05-09T13:13:47.467Z,22.02
2024-05-09T13:16:20.329Z,21.95
2024-05-09T13:18:48.045Z,22.08
2024-05-09T13:21:18.149Z,22.24
2024-05-09T13:23:46.106Z,22.52
2024-05-09T13:26:16.270Z,22.65
2024-05-09T13:28:43.842Z,22.76
2024-05-09T13:31:13.950Z,22.66
2024-05-09T13:33:44.158Z,22.67
2024-05-09T13:36:14.325Z,22.72
2024-05-09T13:38:41.725Z,22.39
2024-05-09T13:41:12.266Z,22.46
2024-05-09T13:43:39.844Z,22.36
2024-05-09T13:46:10.033Z,22.52
2024-05-09T13:48:37.691Z,22.45
2024-05-09T13:51:10.769Z,22.36
2024-05-09T13:53:38.235Z,22.27
2024-05-09T13:56:08.896Z,22.22
2024-05-09T13:58:36.536Z,22.43
2024-05-09T14:01:07.848Z,22.77
2024-05-09T14:03:35.589Z,22.79
2024-05-09T14:06:07.032Z,22.28
2024-05-09T14:08:38.229Z,22.04
2024-05-09T14:11:08.463Z,22.25
2024-05-09T14:13:35.923Z,22.08
2024-05-09T14:16:06.256Z,22.23
2024-05-09T14:18:33.990Z,22.63
2024-05-09T14:21:04.051Z,22.58
2024-05-09T14:23:31.489Z,22.63
2024-05-09T14:26:04.257Z,22.77
2024-05-09T14:28:31.811Z,22.94
2024-05-09T14:31:01.852Z,23.09
2024-05-09T14:33:30.986Z,23.00
2024-05-09T14:36:01.195Z,22.82
2024-05-09T14:38:28.599Z,22.32
2024-05-09T14:40:58.793Z,21.84
2024-05-09T14:43:29.191Z,21.60
2024-05-09T14:45:59.587Z,21.74
2024-05-09T14:48:27.259Z,21.89
2024-05-09T14:50:57.658Z,22.00
2024-05-09T14:53:26.730Z,22.10
2024-05-09T14:55:57.755Z,21.97
2024-05-09T14:58:25.541Z,21.24
2024-05-09T15:00:58.698Z,20.96
2024-05-09T15:03:26.378Z,20.91
2024-05-09T15:05:56.510Z,20.84
2024-05-09T15:08:23.938Z,20.90
2024-05-09T15:10:54.158Z,21.00
2024-05-09T15:13:21.948Z,21.06
2024-05-09T15:15:52.114Z,20.98
2024-05-09T15:18:22.377Z,20.78
2024-05-09T15:20:52.598Z,20.51
2024-05-09T15:23:20.339Z,20.41
2024-05-09T15:25:50.314Z,20.28
2024-05-09T15:28:18.198Z,20.22
2024-05-09T15:30:48.866Z,20.26
2024-05-09T15:33:16.457Z,20.20
2024-05-09T15:35:49.501Z,20.11
2024-05-09T15:38:18.559Z,19.84
2024-05-09T15:40:48.918Z,19.84
2024-05-09T15:43:16.465Z,19.83
2024-05-09T15:45:46.624Z,19.86
2024-05-09T15:48:14.856Z,19.77
2024-05-09T15:50:45.317Z,19.69
2024-05-09T15:53:15.553Z,19.66
2024-05-09T15:55:45.982Z,19.57
2024-05-09T15:58:13.765Z,19.58
2024-05-09T16:00:46.194Z,19.81
2024-05-09T16:03:15.709Z,19.95
2024-05-09T16:05:46.978Z,19.98
2024-05-09T16:08:17.681Z,20.00
2024-05-09T16:10:49.609Z,20.02
2024-05-09T16:13:17.821Z,20.01
2024-05-09T16:15:48.300Z,20.02
2024-05-09T16:18:16.030Z,20.03
2024-05-09T16:20:48.533Z,19.96
2024-05-09T16:23:22.911Z,19.88
2024-05-09T16:25:51.645Z,19.67
2024-05-09T16:28:23.020Z,19.52
2024-05-09T16:30:52.095Z,19.54
2024-05-09T16:33:24.013Z,19.57
2024-05-09T16:35:51.966Z,19.55
2024-05-09T16:38:24.764Z,19.47
2024-05-09T16:40:52.615Z,19.35
2024-05-09T16:43:23.182Z,19.12
2024-05-09T16:45:51.348Z,19.10
2024-05-09T16:48:21.519Z,19.11
2024-05-09T16:50:49.677Z,19.32
2024-05-09T16:53:19.771Z,19.45
2024-05-09T16:55:49.956Z,19.33
2024-05-09T16:58:20.427Z,19.09
2024-05-09T17:00:48.097Z,19.04
2024-05-09T17:03:18.427Z,19.08
2024-05-09T17:05:47.027Z,19.01
2024-05-09T17:08:18.454Z,18.93
2024-05-09T17:10:46.397Z,18.91
2024-05-09T17:13:19.971Z,19.03
2024-05-09T17:15:50.670Z,19.11
2024-05-09T17:18:21.187Z,19.16
2024-05-09T17:20:50.484Z,19.16
2024-05-09T17:23:20.654Z,19.14
2024-05-09T17:25:48.157Z,19.10
2024-05-09T17:28:21.236Z,19.08
2024-05-09T17:30:48.940Z,19.01
2024-05-09T17:33:19.421Z,18.94
2024-05-09T17:35:50.843Z,18.81
2024-05-09T17:38:23.097Z,18.71
2024-05-09T17:40:50.974Z,18.52
2024-05-09T17:43:23.943Z,18.40
2024-05-09T17:45:54.208Z,18.31
2024-05-09T17:48:22.017Z,18.31
2024-05-09T17:50:52.037Z,18.29
2024-05-09T17:53:20.364Z,18.29
2024-05-09T17:55:54.083Z,18.30
2024-05-09T17:58:24.368Z,18.27
2024-05-09T18:00:54.894Z,18.11
2024-05-09T18:03:23.686Z,18.00
2024-05-09T18:05:54.232Z,17.88
2024-05-09T18:08:21.688Z,17.78
2024-05-09T18:10:54.063Z,17.73
2024-05-09T18:13:26.461Z,17.63
2024-05-09T18:15:56.585Z,17.65
2024-05-09T18:18:24.087Z,17.53
2024-05-09T18:20:54.219Z,17.40
2024-05-09T18:23:21.730Z,17.32
2024-05-09T18:25:54.932Z,17.20
2024-05-09T18:28:25.375Z,17.10
2024-05-09T18:30:55.764Z,17.05
2024-05-09T18:33:24.626Z,16.94
2024-05-09T18:35:55.029Z,16.77
2024-05-09T18:38:25.814Z,16.61
2024-05-09T18:40:55.963Z,16.48
2024-05-09T18:43:31.333Z,16.34
2024-05-09T18:46:08.616Z,16.18
2024-05-09T18:48:36.185Z,16.02
2024-05-09T18:51:06.450Z,15.87
2024-05-09T18:53:33.926Z,15.68
2024-05-09T18:56:03.933Z,15.47
2024-05-09T18:58:34.115Z,15.26
2024-05-09T19:01:04.490Z,15.07
2024-05-09T19:03:32.248Z,14.89
2024-05-09T19:06:02.621Z,14.73
2024-05-09T19:08:30.121Z,14.57
2024-05-09T19:11:02.408Z,14.43
2024-05-09T19:13:30.184Z,14.27
2024-05-09T19:16:03.493Z,14.16
2024-05-09T19:18:31.406Z,14.02
2024-05-09T19:21:01.809Z,13.84
2024-05-09T19:23:32.582Z,13.66
2024-05-09T19:28:21.365Z,13.37
2024-05-09T19:30:49.910Z,13.30
2024-05-09T19:33:20.443Z,13.29
2024-05-09T19:35:48.629Z,13.23
2024-05-09T19:38:20.054Z,13.10
2024-05-09T19:40:47.879Z,12.97
2024-05-09T19:43:21.036Z,12.86
2024-05-09T19:45:49.210Z,12.76
2024-05-09T19:48:21.360Z,12.62
2024-05-09T19:50:52.354Z,12.49
2024-05-09T19:53:23.485Z,12.33
2024-05-09T19:55:51.361Z,12.22
2024-05-09T19:58:25.100Z,12.08
2024-05-09T20:00:53.137Z,11.92
2024-05-09T20:03:24.302Z,11.81
2024-05-09T20:05:52.462Z,11.67
2024-05-09T20:08:22.946Z,11.55
2024-05-09T20:10:50.759Z,11.44
2024-05-09T20:13:24.045Z,11.31
2024-05-09T20:15:51.840Z,11.16
2024-05-09T20:18:22.581Z,11.04
2024-05-09T20:20:53.386Z,10.94
2024-05-09T20:23:24.562Z,10.86
2024-05-09T20:25:52.250Z,10.77
2024-05-09T20:28:25.497Z,10.70
2024-05-09T20:30:53.096Z,10.67
2024-05-09T20:33:23.560Z,10.59
2024-05-09T20:35:51.732Z,10.51
2024-05-09T20:38:22.202Z,10.43
2024-05-09T20:40:50.105Z,10.36
2024-05-09T20:43:21.645Z,10.33
2024-05-09T20:45:53.666Z,10.41
2024-05-09T20:48:24.827Z,10.55
2024-05-09T20:50:52.729Z,10.60
2024-05-09T20:53:23.421Z,10.57
2024-05-09T20:55:51.382Z,10.54
2024-05-09T20:58:21.994Z,10.51
2024-05-09T21:00:50.075Z,10.49
2024-05-09T21:03:23.585Z,10.45
2024-05-09T21:05:51.780Z,10.41
2024-05-09T21:08:23.261Z,10.39
2024-05-09T21:10:51.636Z,10.34
2024-05-09T21:13:22.399Z,10.30
2024-05-09T21:15:50.207Z,10.30
2024-05-09T21:18:23.947Z,10.26
2024-05-09T21:20:51.766Z,10.17
2024-05-09T21:23:22.115Z,10.10
2024-05-09T21:25:50.349Z,10.01
2024-05-09T21:28:20.813Z,9.96
2024-05-09T21:30:48.935Z,9.96
2024-05-09T21:33:19.751Z,9.97
2024-05-09T21:35:50.300Z,9.92
2024-05-09T21:38:20.685Z,9.88
2024-05-09T21:40:48.693Z,9.87
2024-05-09T21:43:19.676Z,9.66
2024-05-09T21:45:47.594Z,9.55
2024-05-09T21:48:18.012Z,9.52
2024-05-09T21:50:45.750Z,9.44
2024-05-09T21:53:18.742Z,9.44
2024-05-09T21:55:47.166Z,9.43
2024-05-09T21:58:17.901Z,9.46
2024-05-09T22:00:46.675Z,9.50
2024-05-09T22:03:17.591Z,9.53
2024-05-09T22:05:45.627Z,9.48
2024-05-09T22:08:18.784Z,9.44
2024-05-09T22:10:46.451Z,9.39
2024-05-09T22:13:17.059Z,9.35
2024-05-09T22:15:44.994Z,9.34
2024-05-09T22:18:15.450Z,9.37
2024-05-09T22:20:45.779Z,9.38
2024-05-09T22:23:19.734Z,9.38
2024-05-09T22:25:47.283Z,9.35
2024-05-09T22:28:18.281Z,9.37
2024-05-09T22:30:47.301Z,9.38
2024-05-09T22:33:18.235Z,9.42
2024-05-09T22:35:46.093Z,9.48
2024-05-09T22:38:19.034Z,9.51
2024-05-09T22:40:49.401Z,9.47
2024-05-09T22:43:24.205Z,9.39
2024-05-09T22:45:53.244Z,9.34
2024-05-09T22:48:24.500Z,9.30
2024-05-09T22:50:53.247Z,9.21
2024-05-09T22:53:28.130Z,9.18
2024-05-09T22:55:55.843Z,9.16
2024-05-09T22:58:26.233Z,9.15
2024-05-09T23:00:54.093Z,9.08
2024-05-09T23:03:24.621Z,9.00
2024-05-09T23:05:52.366Z,8.97
2024-05-09T23:08:22.587Z,8.99
2024-05-09T23:10:53.131Z,9.07
2024-05-09T23:13:23.744Z,9.12
2024-05-09T23:15:51.573Z,9.16
2024-05-09T23:18:22.009Z,9.15
2024-05-09T23:20:49.812Z,9.13
2024-05-09T23:23:20.199Z,9.07
2024-05-09T23:25:47.957Z,9.07
2024-05-09T23:28:20.884Z,9.01
2024-05-09T23:30:48.966Z,8.92
2024-05-09T23:33:19.490Z,8.85
2024-05-09T23:35:47.304Z,8.82
2024-05-09T23:38:19.546Z,8.80
2024-05-09T23:40:48.637Z,8.85
2024-05-09T23:43:22.305Z,8.87
2024-05-09T23:45:50.067Z,8.87
2024-05-09T23:48:20.514Z,8.88
2024-05-09T23:50:48.253Z,8.83
2024-05-09T23:53:18.502Z,8.83
2024-05-09T23:55:46.142Z,8.77
2024-05-09T23:58:16.567Z,8.76
